Time;durP1;ratioP1;P1;durP2;ratioP2;P2;SDS_P1;SDS_P2;PMS_P1;PMS_P2;Temp;Humidity;BMP_temperature;BMP_pressure;BME280_temperature;BME280_humidity;BME280_pressure;Samples;Min_cycle;Max_cycle;Signal;HPM_P1;HPM_P2
2022/07/17 00:02:42;;;;;;;4.95;3.97;;;;;;;27.24;nan;97983.41;5069110;28;20651;-68
2022/07/17 00:05:31;;;;;;;6.68;3.65;;;;;;;27.44;nan;97993.56;5087218;28;20040;-69
2022/07/17 00:08:13;;;;;;;5.43;3.97;;;;;;;27.32;nan;97999.06;5070658;28;20655;-68
2022/07/17 00:11:02;;;;;;;5.53;4.55;;;;;;;27.44;nan;97999.09;5087816;28;20044;-69
2022/07/17 00:13:53;;;;;;;12.02;9.02;;;;;;;27.27;nan;98008.38;5078352;28;20779;-67
2022/07/17 00:16:34;;;;;;;14.60;9.95;;;;;;;27.28;nan;98009.94;5052366;28;20703;-69
2022/07/17 00:19:30;;;;;;;14.52;10.30;;;;;;;27.31;nan;98008.47;5066563;28;20048;-67
2022/07/17 00:22:06;;;;;;;19.25;12.55;;;;;;;26.98;nan;98001.03;5066224;28;20051;-68
2022/07/17 00:24:55;;;;;;;17.33;12.02;;;;;;;26.98;nan;98003.78;5066850;28;20756;-70
2022/07/17 00:27:38;;;;;;;15.30;10.98;;;;;;;27.02;nan;98010.22;5066261;28;20610;-70
2022/07/17 00:30:27;;;;;;;15.40;10.23;;;;;;;27.21;nan;98017.97;5065835;28;20742;-69
2022/07/17 00:33:09;;;;;;;11.52;8.88;;;;;;;27.11;nan;98008.19;5080474;28;20632;-70
2022/07/17 00:36:04;;;;;;;12.23;8.82;;;;;;;26.90;nan;98001.91;5086993;28;20047;-70
2022/07/17 00:38:40;;;;;;;11.40;8.27;;;;;;;26.93;nan;98006.75;5085989;28;20658;-69
2022/07/17 00:41:29;;;;;;;11.48;8.35;;;;;;;27.34;nan;98003.09;5082664;28;20490;-69
2022/07/17 00:44:18;;;;;;;11.55;8.40;;;;;;;27.40;nan;98002.84;5063734;28;20058;-69
2022/07/17 00:47:00;;;;;;;14.60;10.20;;;;;;;27.11;nan;97999.09;5086541;28;20058;-69
2022/07/17 00:49:49;;;;;;;15.75;9.05;;;;;;;27.07;nan;98001.72;5085415;28;20767;-68
2022/07/17 00:52:31;;;;;;;13.90;10.15;;;;;;;27.05;nan;97994.97;5086439;28;20040;-69
2022/07/17 00:55:20;;;;;;;12.73;8.63;;;;;;;27.28;nan;97987.13;5065965;28;20047;-69
2022/07/17 00:58:24;;;;;;;12.57;8.95;;;;;;;26.96;nan;97995.03;5071851;28;20054;-69
2022/07/17 01:01:19;;;;;;;11.20;8.27;;;;;;;27.02;nan;97999.22;5093298;27;20050;-69
2022/07/17 01:04:15;;;;;;;10.98;7.82;;;;;;;27.32;nan;97993.53;5088570;28;20043;-68
2022/07/17 01:06:51;;;;;;;12.00;6.65;;;;;;;27.56;nan;97983.72;5106579;28;20362;-69
2022/07/17 01:09:40;;;;;;;10.23;7.50;;;;;;;27.54;nan;97975.78;5105713;28;20812;-68
2022/07/17 01:12:23;;;;;;;10.63;7.50;;;;;;;27.62;nan;97985.09;5086990;28;20061;-69
2022/07/17 01:15:20;;;;;;;12.27;6.88;;;;;;;27.29;nan;97969.47;5106376;28;20036;-70
2022/07/17 01:17:58;;;;;;;9.20;6.85;;;;;;;27.42;nan;97970.25;5106673;28;20045;-69
2022/07/17 01:20:49;;;;;;;10.07;7.50;;;;;;;27.18;nan;97977.31;5104276;28;20665;-69
2022/07/17 01:23:30;;;;;;;9.90;6.78;;;;;;;27.53;nan;97972.22;5102756;28;20355;-69
2022/07/17 01:26:19;;;;;;;10.13;6.25;;;;;;;27.56;nan;97984.50;5105211;28;20031;-69
2022/07/17 01:29:01;;;;;;;12.00;7.30;;;;;;;27.63;nan;97972.91;5106071;28;20048;-69
2022/07/17 01:31:57;;;;;;;8.43;5.95;;;;;;;27.83;nan;97977.47;5104570;28;20556;-70
2022/07/17 01:34:33;;;;;;;11.88;6.57;;;;;;;27.88;nan;97969.00;5105474;28;20831;-70
2022/07/17 01:37:28;;;;;;;9.02;6.60;;;;;;;27.87;nan;97972.09;5105649;28;20044;-70
2022/07/17 01:40:04;;;;;;;8.25;6.38;;;;;;;27.50;nan;97967.41;5104851;28;20045;-68
2022/07/17 01:42:59;;;;;;;7.07;5.40;;;;;;;27.59;nan;97977.50;5105315;28;20062;-69
2022/07/17 01:45:35;;;;;;;7.43;5.30;;;;;;;27.91;nan;97979.34;5105291;28;20818;-69
2022/07/17 01:48:32;;;;;;;6.30;5.55;;;;;;;28.26;nan;97989.88;5104943;28;20791;-70
2022/07/17 01:51:08;;;;;;;7.85;4.80;;;;;;;28.33;nan;97994.78;5107392;28;20377;-71
2022/07/17 01:54:03;;;;;;;6.70;4.95;;;;;;;28.52;nan;97988.66;5110121;28;20047;-71
2022/07/17 01:56:39;;;;;;;6.45;4.75;;;;;;;28.46;nan;97993.59;5106405;28;20884;-69
2022/07/17 01:59:34;;;;;;;14.40;7.25;;;;;;;28.38;nan;97999.25;5097335;28;20070;-69
2022/07/17 02:02:16;;;;;;;8.43;6.32;;;;;;;28.56;nan;97994.28;5083613;28;20047;-70
2022/07/17 02:05:05;;;;;;;8.95;6.50;;;;;;;28.52;nan;97991.41;5085608;28;20054;-71
2022/07/17 02:07:47;;;;;;;7.93;6.40;;;;;;;28.47;nan;97988.84;5084585;28;20618;-70
2022/07/17 02:10:37;;;;;;;9.13;7.90;;;;;;;28.33;nan;97989.25;5086599;28;20040;-70
2022/07/17 02:13:19;;;;;;;11.73;7.07;;;;;;;28.41;nan;97991.06;5098993;28;20046;-70
2022/07/17 02:16:09;;;;;;;7.65;5.82;;;;;;;28.31;nan;97997.88;5101085;28;20039;-70
2022/07/17 02:18:51;;;;;;;6.05;4.65;;;;;;;28.47;nan;97995.22;5105942;28;20043;-68
2022/07/17 02:21:41;;;;;;;7.10;5.35;;;;;;;28.57;nan;97999.44;5105237;28;20813;-68
2022/07/17 02:24:23;;;;;;;7.85;4.28;;;;;;;28.27;nan;97999.72;5085379;28;20054;-69
2022/07/17 02:27:12;;;;;;;4.07;3.40;;;;;;;28.53;nan;97995.78;5085578;28;20463;-69
2022/07/17 02:30:16;;;;;;;9.10;5.60;;;;;;;28.69;nan;98002.16;5103339;28;20040;-69
2022/07/17 02:33:06;;;;;;;11.07;6.18;;;;;;;28.83;nan;98003.69;5090004;28;21358;-70
2022/07/17 02:35:48;;;;;;;9.90;6.30;;;;;;;28.82;nan;98005.66;5083770;28;22047;-69
2022/07/17 02:38:37;;;;;;;8.32;6.68;;;;;;;28.89;nan;98007.81;5083632;28;20050;-69
2022/07/17 02:41:19;;;;;;;10.98;7.00;;;;;;;28.82;nan;98010.41;5087288;28;20040;-69
2022/07/17 02:44:08;;;;;;;11.23;7.43;;;;;;;28.90;nan;98012.19;5085249;28;20044;-69
2022/07/17 02:46:50;;;;;;;11.25;7.82;;;;;;;28.86;nan;98006.56;5085180;28;20048;-69
2022/07/17 02:49:39;;;;;;;14.85;9.90;;;;;;;28.54;nan;98008.44;5083996;28;20648;-69
2022/07/17 02:52:21;;;;;;;14.52;8.35;;;;;;;28.76;nan;98014.53;5084876;28;20717;-70
2022/07/17 02:55:11;;;;;;;14.73;9.60;;;;;;;28.74;nan;98012.16;5091318;28;20057;-70
2022/07/17 02:57:53;;;;;;;15.55;9.75;;;;;;;28.70;nan;98012.06;5109129;28;20039;-69
2022/07/17 03:00:42;;;;;;;14.73;9.48;;;;;;;29.00;nan;98019.97;5104769;27;21351;-69
2022/07/17 03:03:31;;;;;;;16.75;11.52;;;;;;;29.15;nan;98010.13;5105612;28;20043;-69
2022/07/17 03:06:20;;;;;;;20.63;12.90;;;;;;;29.13;nan;98017.19;5104661;28;20054;-70
2022/07/17 03:09:09;;;;;;;20.80;13.32;;;;;;;29.14;nan;98013.25;5107654;28;20044;-70
2022/07/17 03:11:59;;;;;;;18.67;13.32;;;;;;;29.30;nan;98013.28;5108888;28;20514;-70
2022/07/17 03:14:48;;;;;;;15.25;10.98;;;;;;;29.42;nan;98016.75;5107825;28;20579;-70
2022/07/17 03:17:30;;;;;;;13.85;10.18;;;;;;;29.56;nan;98030.16;5103388;28;20395;-69
2022/07/17 03:20:19;;;;;;;16.27;10.55;;;;;;;29.17;nan;98043.72;5087665;28;20044;-69
2022/07/17 03:23:01;;;;;;;13.80;10.13;;;;;;;28.85;nan;98053.88;5088245;28;20046;-69
2022/07/17 03:25:50;;;;;;;11.10;8.02;;;;;;;29.15;nan;98053.53;5086985;28;20208;-70
2022/07/17 03:28:32;;;;;;;7.28;6.20;;;;;;;29.18;nan;98055.59;5087511;28;20050;-69
2022/07/17 03:31:21;;;;;;;7.55;5.63;;;;;;;29.20;nan;98053.28;5087609;28;20033;-70
2022/07/17 03:34:16;;;;;;;5.68;4.68;;;;;;;29.18;nan;98066.66;5075160;28;20062;-71
2022/07/17 03:36:52;;;;;;;6.10;4.93;;;;;;;29.06;nan;98068.28;5108050;28;20052;-70
2022/07/17 03:39:48;;;;;;;6.45;4.55;;;;;;;29.40;nan;98077.09;5089499;28;20540;-69
2022/07/17 03:42:24;;;;;;;8.90;5.65;;;;;;;29.15;nan;98075.66;5107589;28;20046;-69
2022/07/17 03:45:19;;;;;;;6.40;5.43;;;;;;;29.13;nan;98083.50;5107743;28;20522;-71
2022/07/17 03:48:15;;;;;;;8.27;6.03;;;;;;;29.23;nan;98086.53;5107610;28;20050;-70
2022/07/17 03:50:51;;;;;;;8.70;6.30;;;;;;;29.15;nan;98093.03;5108286;28;20104;-70
2022/07/17 03:53:46;;;;;;;7.97;6.00;;;;;;;29.35;nan;98093.97;5107010;28;20814;-70
2022/07/17 03:56:22;;;;;;;8.55;6.10;;;;;;;29.39;nan;98100.41;5107834;28;20040;-70
2022/07/17 03:59:11;;;;;;;12.10;9.05;;;;;;;29.30;nan;98108.03;5108014;28;20378;-70
2022/07/17 04:02:07;;;;;;;14.40;11.07;;;;;;;29.28;nan;98105.63;5094006;28;20066;-70
2022/07/17 04:05:02;;;;;;;13.07;9.98;;;;;;;29.47;nan;98113.25;5066322;28;20432;-70
2022/07/17 04:07:58;;;;;;;16.35;9.48;;;;;;;29.65;nan;98127.53;5066461;28;20617;-70
2022/07/17 04:10:35;;;;;;;12.75;10.02;;;;;;;29.74;nan;98132.94;5048486;28;20571;-71
2022/07/17 04:13:31;;;;;;;13.98;9.05;;;;;;;29.57;nan;98130.47;5066675;28;20490;-71
2022/07/17 04:16:07;;;;;;;15.70;10.25;;;;;;;29.76;nan;98147.22;5067756;28;20045;-70
2022/07/17 04:19:03;;;;;;;13.25;9.13;;;;;;;29.71;nan;98158.50;5087211;28;20345;-70
2022/07/17 04:21:39;;;;;;;10.45;8.07;;;;;;;29.55;nan;98164.00;5069466;28;20879;-70
2022/07/17 04:24:34;;;;;;;11.50;8.07;;;;;;;29.44;nan;98158.16;5082882;28;20044;-72
2022/07/17 04:27:10;;;;;;;13.43;6.63;;;;;;;29.70;nan;98161.63;5067509;28;20487;-68
2022/07/17 04:30:05;;;;;;;7.15;6.35;;;;;;;29.61;nan;98167.31;5066864;28;20043;-72
2022/07/17 04:32:41;;;;;;;10.88;6.20;;;;;;;29.67;nan;98168.66;5065548;28;20329;-70
2022/07/17 04:35:37;;;;;;;7.85;5.93;;;;;;;29.46;nan;98171.66;5066374;28;20044;-69
2022/07/17 04:38:13;;;;;;;9.23;6.75;;;;;;;29.77;nan;98168.19;5075300;28;20036;-69
2022/07/17 04:41:02;;;;;;;9.23;6.85;;;;;;;29.62;nan;98182.75;5079196;28;20564;-70
2022/07/17 04:43:44;;;;;;;8.65;6.30;;;;;;;29.67;nan;98176.94;5065179;28;20247;-71
2022/07/17 04:46:33;;;;;;;9.32;6.47;;;;;;;29.96;nan;98177.72;5065042;28;20029;-72
2022/07/17 04:49:15;;;;;;;7.65;6.28;;;;;;;29.55;nan;98177.03;5065643;28;20049;-73
2022/07/17 04:52:04;;;;;;;11.23;6.88;;;;;;;29.93;nan;98170.16;5066336;28;20484;-70
2022/07/17 04:54:53;;;;;;;7.97;6.25;;;;;;;29.90;nan;98168.91;5065422;28;20815;-70
2022/07/17 04:57:36;;;;;;;7.85;6.80;;;;;;;30.15;nan;98158.47;5074143;28;20784;-69
2022/07/17 05:00:24;;;;;;;8.15;5.95;;;;;;;30.34;nan;98165.25;5086254;28;20426;-72
2022/07/17 05:03:13;;;;;;;8.10;5.78;;;;;;;30.39;nan;98156.69;5088424;28;20070;-70
2022/07/17 05:06:09;;;;;;;7.32;5.13;;;;;;;30.42;nan;98154.00;5104769;28;20639;-70
2022/07/17 05:08:45;;;;;;;9.00;5.70;;;;;;;30.37;nan;98154.28;5110305;27;21471;-78
2022/07/17 05:11:34;;;;;;;8.65;5.88;;;;;;;30.40;nan;98158.28;5100074;28;20528;-78
2022/07/17 05:14:29;;;;;;;8.38;5.57;;;;;;;30.91;nan;98152.75;5087406;28;20054;-77
2022/07/17 05:17:12;;;;;;;8.90;5.75;;;;;;;30.33;nan;98147.84;5084162;28;20036;-76
2022/07/17 05:20:00;;;;;;;6.95;5.90;;;;;;;30.67;nan;98153.78;5092535;28;20032;-77
2022/07/17 05:22:42;;;;;;;9.23;6.22;;;;;;;30.90;nan;98145.63;5118859;27;20307;-73
2022/07/17 05:25:31;;;;;;;7.95;6.28;;;;;;;31.05;nan;98148.66;5091422;28;20058;-75
2022/07/17 05:28:13;;;;;;;9.77;6.30;;;;;;;31.49;nan;98128.97;5087122;28;20052;-77
2022/07/17 05:31:02;;;;;;;9.75;5.82;;;;;;;31.53;nan;98140.97;5085273;28;20054;-78
2022/07/17 05:33:44;;;;;;;5.53;5.00;;;;;;;30.79;nan;98136.22;5096936;28;21548;-77
2022/07/17 05:36:36;;;;;;;6.15;4.95;;;;;;;30.81;nan;98142.22;5097232;28;20633;-73
2022/07/17 05:39:18;;;;;;;5.35;4.63;;;;;;;31.08;nan;98142.41;5083613;28;20040;-76
2022/07/17 05:42:07;;;;;;;8.02;5.53;;;;;;;31.29;nan;98133.72;5086425;28;20066;-77
2022/07/17 05:44:49;;;;;;;7.22;5.60;;;;;;;30.87;nan;98129.66;5085883;28;20709;-78
2022/07/17 05:47:41;;;;;;;4.82;4.03;;;;;;;31.23;nan;98128.47;5085264;28;20572;-76
2022/07/17 05:50:23;;;;;;;8.43;4.95;;;;;;;31.77;nan;98120.38;5090906;28;20478;-78
2022/07/17 05:53:14;;;;;;;8.35;4.53;;;;;;;31.92;nan;98118.66;5103285;28;20032;-75
2022/07/17 05:55:56;;;;;;;4.03;3.60;;;;;;;31.49;nan;98118.69;5105520;28;20039;-76
2022/07/17 05:58:45;;;;;;;3.80;3.40;;;;;;;31.66;nan;98114.63;5089155;28;20367;-75
2022/07/17 06:01:27;;;;;;;5.22;4.05;;;;;;;31.86;nan;98111.81;5099109;28;20048;-76
2022/07/17 06:04:16;;;;;;;7.22;4.88;;;;;;;32.10;nan;98102.31;5092370;28;20727;-76
2022/07/17 06:07:11;;;;;;;5.63;4.60;;;;;;;32.00;nan;98093.41;5094981;28;20046;-75
2022/07/17 06:09:47;;;;;;;6.53;4.43;;;;;;;32.34;nan;98084.44;5094642;28;20040;-75
2022/07/17 06:12:35;;;;;;;5.30;4.20;;;;;;;32.56;nan;98085.50;5092137;28;20229;-76
2022/07/17 06:15:18;;;;;;;5.38;3.95;;;;;;;32.46;nan;98084.19;5100589;28;20057;-76
2022/07/17 06:18:14;;;;;;;6.05;4.40;;;;;;;32.53;nan;98075.19;5074827;28;20039;-75
2022/07/17 06:20:50;;;;;;;4.93;3.58;;;;;;;31.83;nan;98076.47;5091652;28;21874;-76
2022/07/17 06:23:39;;;;;;;5.32;3.85;;;;;;;32.46;nan;98069.50;5095717;28;20444;-77
2022/07/17 06:26:21;;;;;;;6.88;4.45;;;;;;;31.99;nan;98072.38;5087899;28;20753;-77
2022/07/17 06:29:10;;;;;;;5.05;4.10;;;;;;;31.94;nan;98066.34;5094168;28;20051;-77
2022/07/17 06:31:59;;;;;;;4.40;3.75;;;;;;;32.18;nan;98071.50;5093774;28;20045;-75
2022/07/17 06:34:55;;;;;;;7.07;4.53;;;;;;;31.79;nan;98060.56;5092751;28;21794;-74
2022/07/17 06:37:31;;;;;;;4.50;3.63;;;;;;;32.28;nan;98055.41;5089354;28;20417;-75
2022/07/17 06:40:26;;;;;;;4.30;3.60;;;;;;;32.22;nan;98051.31;5105054;28;20065;-76
2022/07/17 06:43:02;;;;;;;3.85;3.45;;;;;;;32.22;nan;98059.63;5107006;28;20047;-75
2022/07/17 06:45:58;;;;;;;6.15;3.75;;;;;;;31.75;nan;98053.34;5107225;28;20652;-76
2022/07/17 06:48:34;;;;;;;3.92;3.53;;;;;;;32.05;nan;98045.16;5097979;28;20592;-77
2022/07/17 06:51:29;;;;;;;5.75;3.63;;;;;;;32.10;nan;98046.78;5109690;28;20118;-77
2022/07/17 06:54:05;;;;;;;5.22;3.75;;;;;;;32.13;nan;98052.41;5113232;28;20069;-75
2022/07/17 06:56:54;;;;;;;3.97;3.50;;;;;;;32.10;nan;98047.59;5072012;28;20670;-76
2022/07/17 06:59:36;;;;;;;4.78;3.45;;;;;;;32.35;nan;98041.59;5091867;28;20343;-77
2022/07/17 07:02:25;;;;;;;5.18;3.70;;;;;;;32.34;nan;98048.34;5095735;28;20050;-75
2022/07/17 07:05:14;;;;;;;5.18;4.45;;;;;;;32.28;nan;98049.84;5096692;27;20056;-76
2022/07/17 07:08:10;;;;;;;3.72;3.33;;;;;;;32.34;nan;98051.91;5082200;28;20044;-76
2022/07/17 07:10:46;;;;;;;6.40;3.22;;;;;;;32.39;nan;98045.25;5100459;28;20795;-76
2022/07/17 07:13:35;;;;;;;3.40;3.10;;;;;;;32.60;nan;98053.09;5104758;28;20874;-74
2022/07/17 07:16:11;;;;;;;4.07;3.00;;;;;;;32.76;nan;98047.31;5095223;28;20040;-75
2022/07/17 07:18:59;;;;;;;2.97;2.72;;;;;;;32.68;nan;98045.66;5098274;28;20035;-74
2022/07/17 07:21:41;;;;;;;2.53;2.33;;;;;;;32.47;nan;98035.81;5103343;28;20040;-75
2022/07/17 07:24:30;;;;;;;4.10;2.50;;;;;;;32.50;nan;98037.03;5102635;28;20044;-74
2022/07/17 07:27:19;;;;;;;3.67;2.30;;;;;;;32.35;nan;98033.25;5101985;28;20044;-74
2022/07/17 07:30:11;;;;;;;3.60;2.67;;;;;;;32.60;nan;98030.03;5089360;28;20055;-73
2022/07/17 07:32:53;;;;;;;4.30;2.70;;;;;;;32.95;nan;98021.34;5095792;28;20043;-75
2022/07/17 07:35:42;;;;;;;5.22;3.00;;;;;;;33.15;nan;98021.97;5104508;28;20601;-75
2022/07/17 07:38:24;;;;;;;4.13;2.78;;;;;;;33.34;nan;98020.97;5105527;28;20131;-75
2022/07/17 07:41:13;;;;;;;3.28;2.40;;;;;;;33.14;nan;98017.59;5111148;28;20040;-74
2022/07/17 07:44:02;;;;;;;3.72;2.40;;;;;;;33.31;nan;98014.19;5114754;28;20510;-74
2022/07/17 07:46:44;;;;;;;2.13;1.83;;;;;;;32.97;nan;98010.63;5106474;28;20370;-74
2022/07/17 07:49:33;;;;;;;3.83;2.13;;;;;;;32.89;nan;97997.84;5096688;28;20639;-74
2022/07/17 07:52:23;;;;;;;2.45;1.70;;;;;;;32.94;nan;97997.50;5106733;28;20046;-75
2022/07/17 07:55:21;;;;;;;3.80;1.95;;;;;;;33.57;nan;97995.72;5106958;28;20493;-75
2022/07/17 07:58:12;;;;;;;1.95;1.60;;;;;;;33.12;nan;97987.41;5104980;28;20046;-75
2022/07/17 08:01:01;;;;;;;3.30;1.67;;;;;;;33.03;nan;97991.63;5104288;28;20562;-74
2022/07/17 08:03:50;;;;;;;3.13;1.50;;;;;;;33.22;nan;97996.22;5104757;28;20616;-74
2022/07/17 08:06:39;;;;;;;2.15;1.42;;;;;;;32.72;nan;97993.69;5100579;28;20043;-75
2022/07/17 08:09:34;;;;;;;2.00;1.40;;;;;;;33.34;nan;97985.63;5104281;28;20535;-75
2022/07/17 08:12:10;;;;;;;1.67;1.40;;;;;;;33.38;nan;97976.50;5103943;28;20039;-74
2022/07/17 08:15:20;;;;;;;2.20;1.08;;;;;;;33.60;nan;97975.50;5104276;28;20514;-75
2022/07/17 08:18:03;;;;;;;2.88;1.20;;;;;;;33.26;nan;97974.81;5093631;28;20040;-72
2022/07/17 08:20:53;;;;;;;1.65;1.20;;;;;;;33.37;nan;97974.91;5084549;28;20631;-72
2022/07/17 08:23:42;;;;;;;1.08;0.98;;;;;;;33.49;nan;97969.84;5088330;28;21446;-73
2022/07/17 08:26:24;;;;;;;1.77;1.10;;;;;;;33.19;nan;97967.22;5105399;28;20603;-71
2022/07/17 08:29:15;;;;;;;1.23;1.00;;;;;;;33.22;nan;97962.84;5106500;28;20044;-73
2022/07/17 08:32:03;;;;;;;3.03;1.30;;;;;;;33.58;nan;97955.59;5107079;27;20036;-73
2022/07/17 08:34:52;;;;;;;1.20;1.10;;;;;;;33.61;nan;97954.84;5090282;28;20624;-73
2022/07/17 08:37:48;;;;;;;1.85;1.10;;;;;;;33.63;nan;97951.66;5106112;28;21844;-74
2022/07/17 08:40:48;;;;;;;3.85;1.40;;;;;;;33.48;nan;97948.00;5105432;28;20582;-73
2022/07/17 08:43:36;;;;;;;1.45;1.33;;;;;;;33.23;nan;97945.78;5105731;28;21452;-74
2022/07/17 08:46:29;;;;;;;5.88;1.73;;;;;;;33.33;nan;97938.72;5099440;28;20040;-74
2022/07/17 08:49:14;;;;;;;2.20;1.73;;;;;;;33.51;nan;97947.19;5086139;28;20048;-71
2022/07/17 08:52:02;;;;;;;3.42;1.67;;;;;;;33.60;nan;97942.09;5103945;28;20077;-76
2022/07/17 08:54:51;;;;;;;2.85;1.70;;;;;;;33.60;nan;97936.53;5102452;27;20767;-71
2022/07/17 08:57:33;;;;;;;3.35;1.70;;;;;;;33.94;nan;97934.41;5085385;28;21418;-75
2022/07/17 09:00:27;;;;;;;3.17;1.70;;;;;;;33.79;nan;97927.16;5086385;28;20082;-72
2022/07/17 09:03:17;;;;;;;5.30;2.10;;;;;;;33.63;nan;97930.25;5085835;28;20044;-74
2022/07/17 09:06:05;;;;;;;3.22;2.13;;;;;;;33.42;nan;97916.94;5088419;28;20432;-73
2022/07/17 09:09:11;;;;;;;2.92;2.22;;;;;;;32.88;nan;97919.22;5085454;28;20163;-74
2022/07/17 09:11:50;;;;;;;7.47;2.03;;;;;;;33.06;nan;97913.84;5084340;28;21676;-74
2022/07/17 09:14:41;;;;;;;4.32;2.15;;;;;;;33.27;nan;97907.69;5084008;28;20601;-75
2022/07/17 09:17:26;;;;;;;4.95;2.30;;;;;;;32.92;nan;97910.91;5085367;28;20040;-75
2022/07/17 09:20:16;;;;;;;3.08;2.30;;;;;;;33.05;nan;97912.22;5084712;28;20044;-74
2022/07/17 09:23:06;;;;;;;19.08;4.65;;;;;;;32.53;nan;97902.97;5088928;28;20074;-71
2022/07/17 09:25:57;;;;;;;3.92;2.10;;;;;;;33.07;nan;97900.72;5089048;28;20810;-74
2022/07/17 09:28:50;;;;;;;2.15;1.95;;;;;;;32.86;nan;97896.56;5101993;28;20663;-74
2022/07/17 09:31:46;;;;;;;2.75;1.95;;;;;;;32.99;nan;97893.53;5103244;28;20415;-73
2022/07/17 09:34:23;;;;;;;5.18;1.90;;;;;;;32.62;nan;97888.78;5089899;28;20058;-73
2022/07/17 09:37:12;;;;;;;3.55;1.67;;;;;;;32.77;nan;97883.00;5105702;28;20045;-73
2022/07/17 09:39:54;;;;;;;2.03;1.70;;;;;;;32.49;nan;97877.94;5106356;28;20096;-72
2022/07/17 09:42:45;;;;;;;3.55;1.85;;;;;;;32.60;nan;97877.25;5104876;28;20044;-71
2022/07/17 09:45:27;;;;;;;2.58;1.77;;;;;;;32.81;nan;97871.09;5105108;28;20050;-73
2022/07/17 09:48:16;;;;;;;2.35;1.80;;;;;;;32.44;nan;97869.13;5091547;28;20040;-73
2022/07/17 09:51:06;;;;;;;2.97;2.20;;;;;;;32.44;nan;97867.16;5084999;28;20054;-74
2022/07/17 09:54:02;;;;;;;3.47;2.40;;;;;;;32.73;nan;97861.91;5093728;28;20701;-75
2022/07/17 09:56:46;;;;;;;2.85;1.80;;;;;;;32.82;nan;97865.19;5084217;28;20101;-71
2022/07/17 09:59:37;;;;;;;2.55;2.20;;;;;;;32.39;nan;97864.72;5107421;28;20168;-71
2022/07/17 10:02:20;;;;;;;3.53;2.15;;;;;;;32.27;nan;97857.44;5105966;28;20050;-72
2022/07/17 10:05:18;;;;;;;7.80;2.03;;;;;;;32.67;nan;97857.88;5105904;28;20495;-69
2022/07/17 10:08:07;;;;;;;4.05;1.90;;;;;;;32.80;nan;97856.44;5101889;28;20048;-70
2022/07/17 10:11:03;;;;;;;4.03;1.88;;;;;;;32.77;nan;97840.50;5071900;28;20123;-67
2022/07/17 10:13:41;;;;;;;2.53;1.60;;;;;;;32.92;nan;97847.81;5086762;28;21454;-72
2022/07/17 10:16:38;;;;;;;1.92;1.65;;;;;;;32.57;nan;97837.94;5095821;28;20036;-69
2022/07/17 10:19:27;;;;;;;4.07;2.00;;;;;;;32.78;nan;97840.13;5107539;28;20036;-68
2022/07/17 10:22:16;;;;;;;2.78;1.70;;;;;;;32.55;nan;97828.38;5106177;28;20051;-69
2022/07/17 10:25:05;;;;;;;1.75;1.63;;;;;;;32.79;nan;97832.63;5099162;28;20051;-69
2022/07/17 10:27:58;;;;;;;2.72;1.80;;;;;;;33.10;nan;97836.03;5102706;27;20701;-70
2022/07/17 10:30:47;;;;;;;2.10;1.60;;;;;;;33.09;nan;97829.66;5098561;27;20414;-71
2022/07/17 10:33:36;;;;;;;3.30;1.40;;;;;;;33.14;nan;97832.13;5100699;28;20664;-70
2022/07/17 10:36:18;;;;;;;2.08;1.70;;;;;;;33.10;nan;97824.91;5102661;28;20036;-71
2022/07/17 10:39:27;;;;;;;3.15;1.40;;;;;;;33.16;nan;97828.97;5097554;28;20050;-70
2022/07/17 10:42:09;;;;;;;2.15;1.50;;;;;;;33.06;nan;97829.66;5100785;28;20376;-70
2022/07/17 10:44:58;;;;;;;2.42;1.60;;;;;;;33.35;nan;97819.56;5107416;28;20050;-69
2022/07/17 10:47:50;;;;;;;4.13;2.03;;;;;;;33.42;nan;97818.78;5107861;28;20627;-71
2022/07/17 10:50:43;;;;;;;2.08;1.70;;;;;;;33.29;nan;97816.34;5087493;28;20637;-68
2022/07/17 10:53:33;;;;;;;3.65;1.75;;;;;;;33.24;nan;97813.91;5096853;28;20032;-70
2022/07/17 10:56:23;;;;;;;3.20;1.60;;;;;;;33.49;nan;97819.63;5088271;28;20058;-70
2022/07/17 10:59:06;;;;;;;1.70;1.60;;;;;;;33.65;nan;97824.91;5091351;28;20054;-70
2022/07/17 11:02:03;;;;;;;2.33;1.60;;;;;;;33.44;nan;97819.19;5100986;28;20607;-70
2022/07/17 11:04:46;;;;;;;4.28;2.63;;;;;;;33.37;nan;97808.03;5108178;28;20640;-70
2022/07/17 11:07:35;;;;;;;9.05;1.95;;;;;;;33.21;nan;97808.31;5124410;27;20628;-69
2022/07/17 11:10:18;;;;;;;2.95;2.15;;;;;;;33.37;nan;97808.03;5098064;27;20040;-68
2022/07/17 11:13:21;;;;;;;2.00;1.80;;;;;;;33.62;nan;97806.19;4732766;28;10000303;-71
2022/07/17 11:16:04;;;;;;;3.08;1.88;;;;;;;33.69;nan;97802.69;5075295;28;20596;-69
2022/07/17 11:18:55;;;;;;;3.80;2.30;;;;;;;33.60;nan;97800.22;5070959;28;20633;-70
2022/07/17 11:21:50;;;;;;;2.65;2.20;;;;;;;33.77;nan;97792.38;5072858;28;20127;-70
2022/07/17 11:24:47;;;;;;;4.45;2.15;;;;;;;33.84;nan;97789.59;5082940;28;20881;-71
2022/07/17 11:27:30;;;;;;;3.15;2.45;;;;;;;33.28;nan;97792.47;5080233;28;20050;-69
2022/07/17 11:30:19;;;;;;;3.97;2.70;;;;;;;33.41;nan;97790.19;5078347;28;20044;-67
2022/07/17 11:33:03;;;;;;;4.80;2.22;;;;;;;33.61;nan;97781.53;5089869;28;20345;-67
2022/07/17 11:35:55;;;;;;;2.80;2.35;;;;;;;33.44;nan;97778.28;5081770;28;20544;-69
2022/07/17 11:38:51;;;;;;;4.18;2.67;;;;;;;33.53;nan;97770.38;5077962;28;21389;-71
2022/07/17 11:41:37;;;;;;;3.28;2.45;;;;;;;33.56;nan;97774.38;5081536;28;21572;-72
2022/07/17 11:44:26;;;;;;;4.22;2.13;;;;;;;33.61;nan;97765.66;5079189;28;20550;-72
2022/07/17 11:47:16;;;;;;;2.22;2.00;;;;;;;33.66;nan;97761.72;5080483;28;20035;-70
2022/07/17 11:50:09;;;;;;;7.68;2.03;;;;;;;33.73;nan;97761.75;5081232;28;20624;-68
2022/07/17 11:52:58;;;;;;;3.45;2.60;;;;;;;33.50;nan;97757.25;5082110;28;20465;-69
2022/07/17 11:55:41;;;;;;;6.35;3.10;;;;;;;33.65;nan;97763.72;5078329;28;22168;-69
2022/07/17 11:58:30;;;;;;;8.90;3.17;;;;;;;33.55;nan;97772.75;5080309;28;20032;-69
2022/07/17 12:01:19;;;;;;;4.60;3.05;;;;;;;33.55;nan;97773.56;5080399;28;20046;-69
2022/07/17 12:04:09;;;;;;;6.07;3.53;;;;;;;33.33;nan;97772.66;5087681;28;20035;-67
2022/07/17 12:07:01;;;;;;;3.33;2.40;;;;;;;33.68;nan;97768.47;5084826;28;20047;-73
2022/07/17 12:09:57;;;;;;;4.90;2.40;;;;;;;33.64;nan;97756.53;5082544;28;20966;-74
2022/07/17 12:13:05;;;;;;;5.43;2.63;;;;;;;33.28;nan;97756.34;5090717;28;20075;-76
2022/07/17 12:15:57;;;;;;;2.70;2.50;;;;;;;33.49;nan;97760.41;5094242;28;20593;-71
2022/07/17 12:19:01;;;;;;;5.00;2.28;;;;;;;33.39;nan;97761.16;5086091;28;20624;-76
2022/07/17 12:22:07;;;;;;;3.58;2.05;;;;;;;33.60;nan;97757.69;5064426;28;20828;-68
2022/07/17 12:24:56;;;;;;;3.53;2.38;;;;;;;33.29;nan;97752.38;5079763;28;20827;-71
2022/07/17 12:27:45;;;;;;;5.40;2.65;;;;;;;33.58;nan;97738.59;5084576;28;20509;-69
2022/07/17 12:30:28;;;;;;;3.85;2.67;;;;;;;33.57;nan;97739.78;5080372;28;23815;-70
2022/07/17 12:33:18;;;;;;;4.60;2.97;;;;;;;33.50;nan;97731.44;5080507;28;20040;-68
2022/07/17 12:36:00;;;;;;;7.40;3.28;;;;;;;33.49;nan;97738.16;5095344;28;20043;-67
2022/07/17 12:38:49;;;;;;;3.47;2.38;;;;;;;33.36;nan;97737.69;5080925;28;20648;-68
2022/07/17 12:41:38;;;;;;;3.97;2.72;;;;;;;33.46;nan;97739.75;5079889;28;20401;-74
2022/07/17 12:44:20;;;;;;;3.13;2.83;;;;;;;33.38;nan;97737.31;5067048;28;20059;-70
2022/07/17 12:47:10;;;;;;;11.20;4.47;;;;;;;33.35;nan;97736.13;5082845;28;20050;-71
2022/07/17 12:49:58;;;;;;;7.35;4.43;;;;;;;33.25;nan;97742.41;5070174;28;20043;-71
2022/07/17 12:52:40;;;;;;;4.82;3.75;;;;;;;32.91;nan;97737.03;5085141;28;20856;-70
2022/07/17 12:55:30;;;;;;;9.23;3.78;;;;;;;32.97;nan;97732.69;5068902;28;20121;-74
2022/07/17 12:58:12;;;;;;;7.40;2.97;;;;;;;32.95;nan;97730.28;5078664;28;20048;-74
2022/07/17 13:01:01;;;;;;;5.90;3.42;;;;;;;33.10;nan;97735.97;5071087;28;20075;-74
2022/07/17 13:03:43;;;;;;;5.25;3.47;;;;;;;33.16;nan;97740.00;5086658;28;20862;-72
2022/07/17 13:06:33;;;;;;;9.10;3.70;;;;;;;32.77;nan;97746.03;5065975;28;20614;-71
2022/07/17 13:09:15;;;;;;;4.10;2.97;;;;;;;32.80;nan;97738.94;5065540;28;20116;-72
2022/07/17 13:12:11;;;;;;;3.90;3.15;;;;;;;32.86;nan;97740.94;5084611;27;20499;-75
2022/07/17 13:15:06;;;;;;;4.10;3.13;;;;;;;32.88;nan;97740.56;5067882;28;20737;-73
2022/07/17 13:17:55;;;;;;;6.72;2.97;;;;;;;32.84;nan;97734.19;5044625;28;21452;-74
2022/07/17 13:20:44;;;;;;;5.35;3.60;;;;;;;32.88;nan;97732.22;5071587;28;20122;-74
2022/07/17 13:23:26;;;;;;;4.20;2.83;;;;;;;32.75;nan;97728.97;5088230;28;20109;-75
2022/07/17 13:26:15;;;;;;;8.10;2.85;;;;;;;32.66;nan;97731.28;5084452;28;20054;-74
2022/07/17 13:29:04;;;;;;;7.57;2.95;;;;;;;32.74;nan;97724.59;5072303;28;20569;-75